Millersburg, Iowa
Current Conditions -  °F | °C
As of 1:35 AM on Thursday 23 Oct 2014 (Local Time) from KOOA Reporting Station
Clear Clear  
Wind Chill: 46°   Ceiling: Unl
Heat Index: 50°   Visibility: 10mi
Dew Point: 41°   Wind: 10mph
Humidity: 72%   Direction: 170°S
Pressure: 30.12"   Gusts: NA
Location:  41.57°N, 92.16°W
Report Text: KOOA 230635Z AUTO 17009KT 10SM CLR 10/05 A3012 RMK AO2 T00990050
Loading
Personal Weather Stations






























Interactive Weather Map
Tropical Storm Tracking
New forecast layout! Learn more

10-Day Weather Forecast

Advertisements
Track Severe Weather on mobile